18:10 MESZ | 07.05.2026 Profi-Wetter| Mobile Seite| Kontakt| Impressum| Datenschutz
Social

Wetterstation Kufstein

Messwerte
  Temperatur Wetter Niederschlag Luftdruck Wind
Do, 17:00 Uhr 15° - 2 mm 1014 hPa 4 km/h S
Do, 16:00 Uhr 13° Schauer 0.4 mm 1014 hPa 4 km/h SW
Do, 15:00 Uhr 12° - 1 mm 1015 hPa 4 km/h N
Do, 14:00 Uhr 16° - 2 mm 1013 hPa 14 km/h N
Do, 13:00 Uhr 15° - 0 mm 1013 hPa 7 km/h NO
Do, 12:00 Uhr 14° - 0.6 mm 1014 hPa 4 km/h SO
Do, 11:00 Uhr 11° - 1 mm 1015 hPa 7 km/h N
Do, 10:00 Uhr 12° - 0.1 mm 1014 hPa 7 km/h N
Do, 09:00 Uhr 12° - 0.1 mm 1013 hPa 7 km/h NO
Do, 08:00 Uhr 11° - 0.1 mm 1013 hPa 4 km/h NO
Do, 07:00 Uhr 11° 0 mm 1012 hPa 4 km/h NO
Do, 06:00 Uhr 11° - 0 mm 1012 hPa 7 km/h N
Do, 05:00 Uhr 11° - 0 mm 1012 hPa 7 km/h NO
Do, 04:00 Uhr 11° - 0 mm 1011 hPa 7 km/h N
Do, 03:00 Uhr 11° - 0 mm 1011 hPa 7 km/h NO
Do, 02:00 Uhr 12° - 0 mm 1011 hPa 7 km/h N
Do, 01:00 Uhr 12° - 0 mm 1011 hPa 7 km/h NO
Do, 00:00 Uhr 13° - 0 mm 1010 hPa 7 km/h NO
Mi, 23:00 Uhr 13° - 0 mm 1010 hPa 7 km/h N
Mi, 22:00 Uhr 14° - 0 mm 1009 hPa 11 km/h N

Alle Zeitangaben MESZ